sensor_id;sensor_type;location;lat;lon;timestamp;P1;durP1;ratioP1;P2;durP2;ratioP2
4533;SDS011;2279;51.448;7.306;2023-04-03T00:00:08;12.80;;;9.85;;
4533;SDS011;2279;51.448;7.306;2023-04-03T00:02:35;12.23;;;9.90;;
4533;SDS011;2279;51.448;7.306;2023-04-03T00:05:01;14.13;;;9.10;;
4533;SDS011;2279;51.448;7.306;2023-04-03T00:07:27;19.90;;;10.30;;
4533;SDS011;2279;51.448;7.306;2023-04-03T00:09:52;17.93;;;9.50;;
4533;SDS011;2279;51.448;7.306;2023-04-03T00:12:18;11.33;;;9.30;;
4533;SDS011;2279;51.448;7.306;2023-04-03T00:14:44;12.47;;;9.13;;
4533;SDS011;2279;51.448;7.306;2023-04-03T00:17:10;10.87;;;8.50;;
4533;SDS011;2279;51.448;7.306;2023-04-03T00:19:36;13.87;;;9.00;;
4533;SDS011;2279;51.448;7.306;2023-04-03T00:22:02;16.07;;;9.10;;
4533;SDS011;2279;51.448;7.306;2023-04-03T00:24:28;11.00;;;8.17;;
4533;SDS011;2279;51.448;7.306;2023-04-03T00:26:54;13.10;;;9.47;;
4533;SDS011;2279;51.448;7.306;2023-04-03T00:29:20;12.47;;;9.93;;
4533;SDS011;2279;51.448;7.306;2023-04-03T00:31:46;12.27;;;8.60;;
4533;SDS011;2279;51.448;7.306;2023-04-03T00:34:12;9.30;;;7.90;;
4533;SDS011;2279;51.448;7.306;2023-04-03T00:36:38;17.47;;;8.57;;
4533;SDS011;2279;51.448;7.306;2023-04-03T00:39:04;14.73;;;9.18;;
4533;SDS011;2279;51.448;7.306;2023-04-03T00:41:30;12.23;;;9.20;;
4533;SDS011;2279;51.448;7.306;2023-04-03T00:43:57;13.45;;;8.93;;
4533;SDS011;2279;51.448;7.306;2023-04-03T00:46:23;13.55;;;8.80;;
4533;SDS011;2279;51.448;7.306;2023-04-03T00:48:49;12.17;;;9.30;;
4533;SDS011;2279;51.448;7.306;2023-04-03T00:51:23;12.25;;;8.45;;
4533;SDS011;2279;51.448;7.306;2023-04-03T00:53:59;14.95;;;9.40;;
4533;SDS011;2279;51.448;7.306;2023-04-03T00:56:27;11.48;;;9.50;;
4533;SDS011;2279;51.448;7.306;2023-04-03T00:58:54;12.43;;;9.38;;
4533;SDS011;2279;51.448;7.306;2023-04-03T01:01:23;13.02;;;10.27;;
4533;SDS011;2279;51.448;7.306;2023-04-03T01:03:50;12.85;;;10.30;;
4533;SDS011;2279;51.448;7.306;2023-04-03T01:06:17;12.15;;;9.98;;
4533;SDS011;2279;51.448;7.306;2023-04-03T01:08:46;14.40;;;9.38;;
4533;SDS011;2279;51.448;7.306;2023-04-03T01:11:13;11.98;;;10.20;;
4533;SDS011;2279;51.448;7.306;2023-04-03T01:13:39;12.48;;;9.30;;
4533;SDS011;2279;51.448;7.306;2023-04-03T01:16:06;12.90;;;9.73;;
4533;SDS011;2279;51.448;7.306;2023-04-03T01:18:32;17.10;;;10.80;;
4533;SDS011;2279;51.448;7.306;2023-04-03T01:23:47;16.25;;;11.95;;
4533;SDS011;2279;51.448;7.306;2023-04-03T01:26:15;17.42;;;11.98;;
4533;SDS011;2279;51.448;7.306;2023-04-03T01:28:41;18.73;;;10.32;;
4533;SDS011;2279;51.448;7.306;2023-04-03T01:33:51;12.25;;;9.07;;
4533;SDS011;2279;51.448;7.306;2023-04-03T01:36:19;17.13;;;9.60;;
4533;SDS011;2279;51.448;7.306;2023-04-03T01:38:46;9.40;;;7.43;;
4533;SDS011;2279;51.448;7.306;2023-04-03T01:41:12;16.60;;;9.00;;
4533;SDS011;2279;51.448;7.306;2023-04-03T01:43:38;11.95;;;9.13;;
4533;SDS011;2279;51.448;7.306;2023-04-03T01:46:04;14.20;;;8.07;;
4533;SDS011;2279;51.448;7.306;2023-04-03T01:48:30;17.37;;;7.50;;
4533;SDS011;2279;51.448;7.306;2023-04-03T01:50:56;15.43;;;7.60;;
4533;SDS011;2279;51.448;7.306;2023-04-03T01:53:22;7.60;;;6.80;;
4533;SDS011;2279;51.448;7.306;2023-04-03T01:55:48;8.20;;;6.40;;
4533;SDS011;2279;51.448;7.306;2023-04-03T01:58:14;7.72;;;6.70;;
4533;SDS011;2279;51.448;7.306;2023-04-03T02:00:40;10.03;;;7.37;;
4533;SDS011;2279;51.448;7.306;2023-04-03T02:03:06;14.23;;;7.40;;
4533;SDS011;2279;51.448;7.306;2023-04-03T02:05:32;8.97;;;6.40;;
4533;SDS011;2279;51.448;7.306;2023-04-03T02:07:58;9.07;;;5.50;;
4533;SDS011;2279;51.448;7.306;2023-04-03T02:10:24;6.17;;;5.50;;
4533;SDS011;2279;51.448;7.306;2023-04-03T02:12:50;13.73;;;5.77;;
4533;SDS011;2279;51.448;7.306;2023-04-03T02:15:16;13.95;;;7.78;;
4533;SDS011;2279;51.448;7.306;2023-04-03T02:17:42;6.35;;;5.72;;
4533;SDS011;2279;51.448;7.306;2023-04-03T02:20:08;5.53;;;4.65;;
4533;SDS011;2279;51.448;7.306;2023-04-03T02:22:34;12.35;;;5.65;;
4533;SDS011;2279;51.448;7.306;2023-04-03T02:25:00;5.90;;;4.35;;
4533;SDS011;2279;51.448;7.306;2023-04-03T02:27:26;5.90;;;4.82;;
4533;SDS011;2279;51.448;7.306;2023-04-03T02:29:52;4.73;;;3.50;;
4533;SDS011;2279;51.448;7.306;2023-04-03T02:32:18;11.20;;;4.10;;
4533;SDS011;2279;51.448;7.306;2023-04-03T02:34:46;4.67;;;4.20;;
4533;SDS011;2279;51.448;7.306;2023-04-03T02:37:12;5.95;;;4.25;;
4533;SDS011;2279;51.448;7.306;2023-04-03T02:39:38;5.88;;;4.15;;
4533;SDS011;2279;51.448;7.306;2023-04-03T02:42:03;4.17;;;3.77;;
4533;SDS011;2279;51.448;7.306;2023-04-03T02:44:29;5.13;;;3.20;;
4533;SDS011;2279;51.448;7.306;2023-04-03T02:46:55;7.13;;;4.30;;
4533;SDS011;2279;51.448;7.306;2023-04-03T02:49:21;10.13;;;5.40;;
4533;SDS011;2279;51.448;7.306;2023-04-03T02:51:47;10.80;;;5.63;;
4533;SDS011;2279;51.448;7.306;2023-04-03T02:54:13;8.63;;;3.60;;
4533;SDS011;2279;51.448;7.306;2023-04-03T02:56:39;8.95;;;4.32;;
4533;SDS011;2279;51.448;7.306;2023-04-03T02:59:05;4.20;;;3.80;;
4533;SDS011;2279;51.448;7.306;2023-04-03T03:01:31;7.00;;;3.70;;
4533;SDS011;2279;51.448;7.306;2023-04-03T03:03:58;4.95;;;3.72;;
4533;SDS011;2279;51.448;7.306;2023-04-03T03:06:24;5.65;;;3.80;;
4533;SDS011;2279;51.448;7.306;2023-04-03T03:08:51;4.00;;;3.50;;
4533;SDS011;2279;51.448;7.306;2023-04-03T03:11:17;4.93;;;3.43;;
4533;SDS011;2279;51.448;7.306;2023-04-03T03:13:43;6.38;;;3.83;;
4533;SDS011;2279;51.448;7.306;2023-04-03T03:16:08;3.30;;;2.97;;
4533;SDS011;2279;51.448;7.306;2023-04-03T03:18:35;6.90;;;3.00;;
4533;SDS011;2279;51.448;7.306;2023-04-03T03:21:01;6.15;;;3.60;;
4533;SDS011;2279;51.448;7.306;2023-04-03T03:23:28;5.57;;;3.80;;
4533;SDS011;2279;51.448;7.306;2023-04-03T03:25:56;4.85;;;3.80;;
4533;SDS011;2279;51.448;7.306;2023-04-03T03:28:22;6.10;;;3.40;;
4533;SDS011;2279;51.448;7.306;2023-04-03T03:30:48;6.38;;;3.97;;
4533;SDS011;2279;51.448;7.306;2023-04-03T03:33:14;6.05;;;3.38;;
4533;SDS011;2279;51.448;7.306;2023-04-03T03:35:42;9.98;;;7.05;;
4533;SDS011;2279;51.448;7.306;2023-04-03T03:38:08;3.88;;;3.47;;
4533;SDS011;2279;51.448;7.306;2023-04-03T03:40:34;7.95;;;3.70;;
4533;SDS011;2279;51.448;7.306;2023-04-03T03:43:00;4.65;;;4.10;;
4533;SDS011;2279;51.448;7.306;2023-04-03T03:45:26;3.83;;;3.27;;
4533;SDS011;2279;51.448;7.306;2023-04-03T03:47:52;6.07;;;3.80;;
4533;SDS011;2279;51.448;7.306;2023-04-03T03:50:18;4.78;;;3.80;;
4533;SDS011;2279;51.448;7.306;2023-04-03T03:52:44;6.70;;;4.22;;
4533;SDS011;2279;51.448;7.306;2023-04-03T03:55:11;6.15;;;5.15;;
4533;SDS011;2279;51.448;7.306;2023-04-03T03:57:37;9.10;;;4.38;;
4533;SDS011;2279;51.448;7.306;2023-04-03T04:00:03;9.17;;;5.10;;
4533;SDS011;2279;51.448;7.306;2023-04-03T04:02:29;5.47;;;3.67;;
4533;SDS011;2279;51.448;7.306;2023-04-03T04:04:55;9.55;;;4.45;;
4533;SDS011;2279;51.448;7.306;2023-04-03T04:07:21;7.82;;;4.75;;
4533;SDS011;2279;51.448;7.306;2023-04-03T04:09:47;17.83;;;4.73;;
4533;SDS011;2279;51.448;7.306;2023-04-03T04:12:13;6.10;;;4.20;;
4533;SDS011;2279;51.448;7.306;2023-04-03T04:14:39;3.90;;;3.55;;
4533;SDS011;2279;51.448;7.306;2023-04-03T04:17:05;7.20;;;3.60;;
4533;SDS011;2279;51.448;7.306;2023-04-03T04:19:31;7.22;;;4.22;;
4533;SDS011;2279;51.448;7.306;2023-04-03T04:21:58;6.18;;;4.20;;
4533;SDS011;2279;51.448;7.306;2023-04-03T04:24:24;7.47;;;4.03;;
4533;SDS011;2279;51.448;7.306;2023-04-03T04:26:50;8.05;;;3.50;;
4533;SDS011;2279;51.448;7.306;2023-04-03T04:29:16;12.20;;;5.72;;
4533;SDS011;2279;51.448;7.306;2023-04-03T04:31:42;7.70;;;3.67;;
4533;SDS011;2279;51.448;7.306;2023-04-03T04:34:08;7.50;;;4.17;;
4533;SDS011;2279;51.448;7.306;2023-04-03T04:36:34;16.25;;;4.15;;
4533;SDS011;2279;51.448;7.306;2023-04-03T04:39:01;4.07;;;3.67;;
4533;SDS011;2279;51.448;7.306;2023-04-03T04:41:27;15.77;;;10.68;;
4533;SDS011;2279;51.448;7.306;2023-04-03T04:43:53;7.23;;;4.20;;
4533;SDS011;2279;51.448;7.306;2023-04-03T04:46:19;8.40;;;4.97;;
4533;SDS011;2279;51.448;7.306;2023-04-03T04:48:45;10.40;;;3.87;;
4533;SDS011;2279;51.448;7.306;2023-04-03T04:51:11;5.03;;;4.20;;
4533;SDS011;2279;51.448;7.306;2023-04-03T04:53:37;7.90;;;3.97;;
4533;SDS011;2279;51.448;7.306;2023-04-03T04:56:03;3.40;;;3.10;;
4533;SDS011;2279;51.448;7.306;2023-04-03T04:58:29;4.57;;;3.55;;
4533;SDS011;2279;51.448;7.306;2023-04-03T05:00:59;5.33;;;4.17;;
4533;SDS011;2279;51.448;7.306;2023-04-03T05:03:25;5.95;;;4.20;;
4533;SDS011;2279;51.448;7.306;2023-04-03T05:05:51;5.60;;;4.40;;
4533;SDS011;2279;51.448;7.306;2023-04-03T05:08:17;8.10;;;3.50;;
4533;SDS011;2279;51.448;7.306;2023-04-03T05:10:44;5.60;;;3.90;;
4533;SDS011;2279;51.448;7.306;2023-04-03T05:13:10;9.38;;;5.35;;
4533;SDS011;2279;51.448;7.306;2023-04-03T05:15:37;7.77;;;3.70;;
4533;SDS011;2279;51.448;7.306;2023-04-03T05:18:03;5.13;;;3.60;;
4533;SDS011;2279;51.448;7.306;2023-04-03T05:20:30;9.48;;;4.40;;
4533;SDS011;2279;51.448;7.306;2023-04-03T05:22:56;4.90;;;4.00;;
4533;SDS011;2279;51.448;7.306;2023-04-03T05:25:23;10.35;;;3.88;;
4533;SDS011;2279;51.448;7.306;2023-04-03T05:27:49;8.43;;;4.47;;
4533;SDS011;2279;51.448;7.306;2023-04-03T05:30:15;5.65;;;3.65;;
4533;SDS011;2279;51.448;7.306;2023-04-03T05:32:42;4.60;;;4.13;;
4533;SDS011;2279;51.448;7.306;2023-04-03T05:35:08;9.40;;;4.80;;
4533;SDS011;2279;51.448;7.306;2023-04-03T05:37:34;5.93;;;3.97;;
4533;SDS011;2279;51.448;7.306;2023-04-03T05:40:00;5.72;;;3.95;;
4533;SDS011;2279;51.448;7.306;2023-04-03T05:42:26;6.90;;;4.15;;
4533;SDS011;2279;51.448;7.306;2023-04-03T05:44:52;6.67;;;3.87;;
4533;SDS011;2279;51.448;7.306;2023-04-03T05:47:18;13.03;;;4.47;;
4533;SDS011;2279;51.448;7.306;2023-04-03T05:49:45;5.63;;;3.42;;
4533;SDS011;2279;51.448;7.306;2023-04-03T05:52:21;11.95;;;4.78;;
4533;SDS011;2279;51.448;7.306;2023-04-03T05:54:48;10.88;;;4.30;;
4533;SDS011;2279;51.448;7.306;2023-04-03T05:57:14;5.68;;;3.72;;
4533;SDS011;2279;51.448;7.306;2023-04-03T05:59:44;5.97;;;4.28;;
4533;SDS011;2279;51.448;7.306;2023-04-03T06:02:11;4.55;;;3.90;;
4533;SDS011;2279;51.448;7.306;2023-04-03T06:04:37;4.80;;;4.00;;
4533;SDS011;2279;51.448;7.306;2023-04-03T06:07:03;11.23;;;4.07;;
4533;SDS011;2279;51.448;7.306;2023-04-03T06:09:29;7.00;;;4.80;;
4533;SDS011;2279;51.448;7.306;2023-04-03T06:11:55;6.53;;;4.45;;
4533;SDS011;2279;51.448;7.306;2023-04-03T06:14:24;7.97;;;3.30;;
4533;SDS011;2279;51.448;7.306;2023-04-03T06:16:50;11.73;;;3.88;;
4533;SDS011;2279;51.448;7.306;2023-04-03T06:19:16;4.00;;;3.60;;
4533;SDS011;2279;51.448;7.306;2023-04-03T06:21:42;4.82;;;3.50;;
4533;SDS011;2279;51.448;7.306;2023-04-03T06:24:09;6.07;;;3.53;;
4533;SDS011;2279;51.448;7.306;2023-04-03T06:26:35;7.40;;;3.60;;
4533;SDS011;2279;51.448;7.306;2023-04-03T06:29:02;5.90;;;4.33;;
4533;SDS011;2279;51.448;7.306;2023-04-03T06:31:28;4.25;;;3.20;;
4533;SDS011;2279;51.448;7.306;2023-04-03T06:33:54;6.43;;;4.10;;
4533;SDS011;2279;51.448;7.306;2023-04-03T06:36:21;5.40;;;3.25;;
4533;SDS011;2279;51.448;7.306;2023-04-03T06:38:48;4.32;;;2.95;;
4533;SDS011;2279;51.448;7.306;2023-04-03T06:41:14;4.70;;;3.15;;
4533;SDS011;2279;51.448;7.306;2023-04-03T06:43:41;9.55;;;4.00;;
4533;SDS011;2279;51.448;7.306;2023-04-03T06:46:12;6.00;;;3.50;;
4533;SDS011;2279;51.448;7.306;2023-04-03T06:48:38;7.70;;;3.13;;
4533;SDS011;2279;51.448;7.306;2023-04-03T06:51:04;5.05;;;3.65;;
4533;SDS011;2279;51.448;7.306;2023-04-03T06:53:30;8.33;;;3.43;;
4533;SDS011;2279;51.448;7.306;2023-04-03T06:55:57;11.90;;;4.63;;
4533;SDS011;2279;51.448;7.306;2023-04-03T06:58:25;9.60;;;4.50;;
4533;SDS011;2279;51.448;7.306;2023-04-03T07:00:51;5.68;;;3.95;;
4533;SDS011;2279;51.448;7.306;2023-04-03T07:03:17;7.67;;;4.00;;
4533;SDS011;2279;51.448;7.306;2023-04-03T07:05:43;8.87;;;4.17;;
4533;SDS011;2279;51.448;7.306;2023-04-03T07:08:09;4.25;;;3.47;;
4533;SDS011;2279;51.448;7.306;2023-04-03T07:10:37;4.97;;;3.50;;
4533;SDS011;2279;51.448;7.306;2023-04-03T07:13:03;6.50;;;3.77;;
4533;SDS011;2279;51.448;7.306;2023-04-03T07:15:29;4.67;;;3.27;;
4533;SDS011;2279;51.448;7.306;2023-04-03T07:17:55;4.70;;;3.60;;
4533;SDS011;2279;51.448;7.306;2023-04-03T07:20:21;5.70;;;3.40;;
4533;SDS011;2279;51.448;7.306;2023-04-03T07:22:47;5.53;;;2.50;;
4533;SDS011;2279;51.448;7.306;2023-04-03T07:25:13;2.50;;;2.20;;
4533;SDS011;2279;51.448;7.306;2023-04-03T07:27:39;7.43;;;2.90;;
4533;SDS011;2279;51.448;7.306;2023-04-03T07:30:05;5.13;;;2.60;;
4533;SDS011;2279;51.448;7.306;2023-04-03T07:32:31;6.47;;;3.30;;
4533;SDS011;2279;51.448;7.306;2023-04-03T07:34:57;14.07;;;3.10;;
4533;SDS011;2279;51.448;7.306;2023-04-03T07:37:23;3.90;;;2.87;;
4533;SDS011;2279;51.448;7.306;2023-04-03T07:39:51;3.50;;;2.43;;
4533;SDS011;2279;51.448;7.306;2023-04-03T07:42:20;6.13;;;2.60;;
4533;SDS011;2279;51.448;7.306;2023-04-03T07:44:46;3.00;;;1.97;;
4533;SDS011;2279;51.448;7.306;2023-04-03T07:47:12;4.47;;;2.80;;
4533;SDS011;2279;51.448;7.306;2023-04-03T07:49:41;7.27;;;2.50;;
4533;SDS011;2279;51.448;7.306;2023-04-03T07:52:07;4.17;;;3.10;;
4533;SDS011;2279;51.448;7.306;2023-04-03T07:54:34;2.80;;;2.10;;
4533;SDS011;2279;51.448;7.306;2023-04-03T07:57:00;4.10;;;2.50;;
4533;SDS011;2279;51.448;7.306;2023-04-03T07:59:26;5.70;;;2.90;;
4533;SDS011;2279;51.448;7.306;2023-04-03T08:01:52;6.80;;;2.30;;
4533;SDS011;2279;51.448;7.306;2023-04-03T08:04:18;3.50;;;2.23;;
4533;SDS011;2279;51.448;7.306;2023-04-03T08:06:44;5.83;;;2.77;;
4533;SDS011;2279;51.448;7.306;2023-04-03T08:09:10;6.50;;;3.60;;
4533;SDS011;2279;51.448;7.306;2023-04-03T08:11:38;5.07;;;2.10;;
4533;SDS011;2279;51.448;7.306;2023-04-03T08:14:04;5.83;;;2.30;;
4533;SDS011;2279;51.448;7.306;2023-04-03T08:16:30;7.40;;;2.60;;
4533;SDS011;2279;51.448;7.306;2023-04-03T08:18:56;3.60;;;3.17;;
4533;SDS011;2279;51.448;7.306;2023-04-03T08:21:22;4.03;;;1.97;;
4533;SDS011;2279;51.448;7.306;2023-04-03T08:23:49;3.80;;;2.63;;
4533;SDS011;2279;51.448;7.306;2023-04-03T08:26:16;6.87;;;2.90;;
4533;SDS011;2279;51.448;7.306;2023-04-03T08:28:43;3.77;;;2.00;;
4533;SDS011;2279;51.448;7.306;2023-04-03T08:31:10;4.87;;;2.47;;
4533;SDS011;2279;51.448;7.306;2023-04-03T08:33:36;5.17;;;2.80;;
4533;SDS011;2279;51.448;7.306;2023-04-03T08:36:07;3.77;;;2.50;;
4533;SDS011;2279;51.448;7.306;2023-04-03T08:38:33;4.50;;;2.63;;
4533;SDS011;2279;51.448;7.306;2023-04-03T08:46:22;3.33;;;1.97;;
4533;SDS011;2279;51.448;7.306;2023-04-03T08:48:51;3.10;;;2.80;;
4533;SDS011;2279;51.448;7.306;2023-04-03T08:51:19;11.37;;;3.40;;
4533;SDS011;2279;51.448;7.306;2023-04-03T08:53:53;4.47;;;2.50;;
4533;SDS011;2279;51.448;7.306;2023-04-03T08:56:21;2.83;;;2.53;;
4533;SDS011;2279;51.448;7.306;2023-04-03T08:58:50;4.20;;;2.67;;
4533;SDS011;2279;51.448;7.306;2023-04-03T09:03:47;4.27;;;2.50;;
4533;SDS011;2279;51.448;7.306;2023-04-03T09:06:26;3.53;;;2.87;;
4533;SDS011;2279;51.448;7.306;2023-04-03T09:14:20;7.60;;;2.57;;
4533;SDS011;2279;51.448;7.306;2023-04-03T09:16:59;2.77;;;2.30;;
4533;SDS011;2279;51.448;7.306;2023-04-03T09:22:07;4.87;;;2.70;;
4533;SDS011;2279;51.448;7.306;2023-04-03T09:24:37;2.53;;;2.00;;
4533;SDS011;2279;51.448;7.306;2023-04-03T09:27:04;2.87;;;2.10;;
4533;SDS011;2279;51.448;7.306;2023-04-03T09:29:33;3.60;;;2.17;;
4533;SDS011;2279;51.448;7.306;2023-04-03T09:32:02;5.87;;;2.27;;
4533;SDS011;2279;51.448;7.306;2023-04-03T09:34:35;6.30;;;2.50;;
4533;SDS011;2279;51.448;7.306;2023-04-03T09:37:03;4.00;;;2.23;;
4533;SDS011;2279;51.448;7.306;2023-04-03T09:39:54;3.97;;;2.13;;
4533;SDS011;2279;51.448;7.306;2023-04-03T09:42:21;2.23;;;2.00;;
4533;SDS011;2279;51.448;7.306;2023-04-03T09:47:28;3.20;;;2.07;;
4533;SDS011;2279;51.448;7.306;2023-04-03T09:52:42;3.60;;;2.40;;
4533;SDS011;2279;51.448;7.306;2023-04-03T09:57:41;3.67;;;2.57;;
4533;SDS011;2279;51.448;7.306;2023-04-03T10:02:55;2.70;;;2.50;;
4533;SDS011;2279;51.448;7.306;2023-04-03T10:05:34;3.83;;;2.80;;
4533;SDS011;2279;51.448;7.306;2023-04-03T10:10:40;5.20;;;3.07;;
4533;SDS011;2279;51.448;7.306;2023-04-03T10:13:09;3.30;;;2.90;;
4533;SDS011;2279;51.448;7.306;2023-04-03T10:15:39;3.70;;;2.90;;
4533;SDS011;2279;51.448;7.306;2023-04-03T10:18:14;2.37;;;2.10;;
4533;SDS011;2279;51.448;7.306;2023-04-03T10:20:43;5.33;;;2.17;;
4533;SDS011;2279;51.448;7.306;2023-04-03T10:23:33;5.73;;;2.47;;
4533;SDS011;2279;51.448;7.306;2023-04-03T10:28:49;2.53;;;2.07;;
4533;SDS011;2279;51.448;7.306;2023-04-03T10:31:21;3.40;;;2.17;;
4533;SDS011;2279;51.448;7.306;2023-04-03T10:33:53;2.80;;;2.27;;
4533;SDS011;2279;51.448;7.306;2023-04-03T10:36:30;3.10;;;2.63;;
4533;SDS011;2279;51.448;7.306;2023-04-03T10:44:14;3.93;;;2.03;;
4533;SDS011;2279;51.448;7.306;2023-04-03T10:46:43;3.50;;;2.40;;
4533;SDS011;2279;51.448;7.306;2023-04-03T10:52:02;2.73;;;2.00;;
4533;SDS011;2279;51.448;7.306;2023-04-03T10:54:36;3.33;;;2.17;;
4533;SDS011;2279;51.448;7.306;2023-04-03T10:57:04;4.80;;;3.17;;
4533;SDS011;2279;51.448;7.306;2023-04-03T11:02:07;3.07;;;2.80;;
4533;SDS011;2279;51.448;7.306;2023-04-03T11:04:37;6.13;;;3.27;;
4533;SDS011;2279;51.448;7.306;2023-04-03T11:07:10;4.60;;;2.30;;
4533;SDS011;2279;51.448;7.306;2023-04-03T11:09:37;3.17;;;2.70;;
4533;SDS011;2279;51.448;7.306;2023-04-03T11:14:51;2.53;;;2.33;;
4533;SDS011;2279;51.448;7.306;2023-04-03T11:22:29;4.20;;;2.43;;
4533;SDS011;2279;51.448;7.306;2023-04-03T11:27:26;5.63;;;2.93;;
4533;SDS011;2279;51.448;7.306;2023-04-03T11:29:55;2.20;;;1.97;;
4533;SDS011;2279;51.448;7.306;2023-04-03T11:34:48;2.40;;;2.20;;
4533;SDS011;2279;51.448;7.306;2023-04-03T11:37:27;2.90;;;2.07;;
4533;SDS011;2279;51.448;7.306;2023-04-03T11:39:59;2.23;;;2.03;;
4533;SDS011;2279;51.448;7.306;2023-04-03T11:42:37;3.00;;;2.70;;
4533;SDS011;2279;51.448;7.306;2023-04-03T11:47:49;3.40;;;2.63;;
4533;SDS011;2279;51.448;7.306;2023-04-03T12:08:29;2.83;;;2.03;;
4533;SDS011;2279;51.448;7.306;2023-04-03T12:14:20;2.27;;;2.07;;
4533;SDS011;2279;51.448;7.306;2023-04-03T12:21:22;2.37;;;2.10;;
4533;SDS011;2279;51.448;7.306;2023-04-03T12:24:02;5.93;;;2.37;;
4533;SDS011;2279;51.448;7.306;2023-04-03T12:26:34;2.50;;;1.70;;
4533;SDS011;2279;51.448;7.306;2023-04-03T12:29:02;4.53;;;1.83;;
4533;SDS011;2279;51.448;7.306;2023-04-03T12:31:40;8.20;;;2.23;;
4533;SDS011;2279;51.448;7.306;2023-04-03T12:34:48;2.90;;;2.30;;
4533;SDS011;2279;51.448;7.306;2023-04-03T12:37:07;3.53;;;2.30;;
4533;SDS011;2279;51.448;7.306;2023-04-03T12:47:33;2.53;;;2.30;;
4533;SDS011;2279;51.448;7.306;2023-04-03T12:50:01;2.40;;;2.10;;
4533;SDS011;2279;51.448;7.306;2023-04-03T12:52:30;3.07;;;2.13;;
4533;SDS011;2279;51.448;7.306;2023-04-03T12:54:58;2.80;;;2.10;;
4533;SDS011;2279;51.448;7.306;2023-04-03T12:57:25;1.87;;;1.47;;
4533;SDS011;2279;51.448;7.306;2023-04-03T12:59:52;5.57;;;2.03;;
4533;SDS011;2279;51.448;7.306;2023-04-03T13:04:48;2.00;;;1.80;;
4533;SDS011;2279;51.448;7.306;2023-04-03T13:07:21;2.30;;;1.83;;
4533;SDS011;2279;51.448;7.306;2023-04-03T13:10:00;2.07;;;1.80;;
4533;SDS011;2279;51.448;7.306;2023-04-03T13:12:27;3.00;;;1.97;;
4533;SDS011;2279;51.448;7.306;2023-04-03T13:14:56;2.37;;;2.17;;
4533;SDS011;2279;51.448;7.306;2023-04-03T13:17:23;3.20;;;1.80;;
4533;SDS011;2279;51.448;7.306;2023-04-03T13:19:49;3.47;;;2.10;;
4533;SDS011;2279;51.448;7.306;2023-04-03T13:24:42;2.30;;;1.83;;
4533;SDS011;2279;51.448;7.306;2023-04-03T13:27:10;3.63;;;2.07;;
4533;SDS011;2279;51.448;7.306;2023-04-03T13:29:37;2.70;;;1.90;;
4533;SDS011;2279;51.448;7.306;2023-04-03T13:32:04;2.20;;;1.97;;
4533;SDS011;2279;51.448;7.306;2023-04-03T13:34:35;2.30;;;1.77;;
4533;SDS011;2279;51.448;7.306;2023-04-03T13:37:02;2.03;;;1.93;;
4533;SDS011;2279;51.448;7.306;2023-04-03T13:39:32;1.83;;;1.70;;
4533;SDS011;2279;51.448;7.306;2023-04-03T13:41:59;2.90;;;2.03;;
4533;SDS011;2279;51.448;7.306;2023-04-03T13:44:34;5.13;;;2.67;;
4533;SDS011;2279;51.448;7.306;2023-04-03T13:49:55;2.10;;;1.70;;
4533;SDS011;2279;51.448;7.306;2023-04-03T13:52:34;3.00;;;1.83;;
4533;SDS011;2279;51.448;7.306;2023-04-03T14:00:36;2.80;;;2.00;;
4533;SDS011;2279;51.448;7.306;2023-04-03T14:03:02;3.10;;;2.27;;
4533;SDS011;2279;51.448;7.306;2023-04-03T14:05:28;3.53;;;1.97;;
4533;SDS011;2279;51.448;7.306;2023-04-03T14:07:55;1.60;;;1.50;;
4533;SDS011;2279;51.448;7.306;2023-04-03T14:10:21;2.30;;;2.03;;
4533;SDS011;2279;51.448;7.306;2023-04-03T14:12:48;1.90;;;1.80;;
4533;SDS011;2279;51.448;7.306;2023-04-03T14:17:45;1.80;;;1.70;;
4533;SDS011;2279;51.448;7.306;2023-04-03T14:20:15;2.23;;;1.93;;
4533;SDS011;2279;51.448;7.306;2023-04-03T14:22:41;1.67;;;1.57;;
4533;SDS011;2279;51.448;7.306;2023-04-03T14:25:07;2.33;;;1.70;;
4533;SDS011;2279;51.448;7.306;2023-04-03T14:27:34;1.93;;;1.77;;
4533;SDS011;2279;51.448;7.306;2023-04-03T14:30:01;1.67;;;1.57;;
4533;SDS011;2279;51.448;7.306;2023-04-03T14:32:28;2.37;;;1.80;;
4533;SDS011;2279;51.448;7.306;2023-04-03T14:34:54;2.87;;;2.20;;
4533;SDS011;2279;51.448;7.306;2023-04-03T14:37:23;2.60;;;1.80;;
4533;SDS011;2279;51.448;7.306;2023-04-03T14:39:51;6.20;;;2.20;;
4533;SDS011;2279;51.448;7.306;2023-04-03T14:42:22;3.33;;;1.87;;
4533;SDS011;2279;51.448;7.306;2023-04-03T14:44:49;4.00;;;1.87;;
4533;SDS011;2279;51.448;7.306;2023-04-03T14:47:16;3.50;;;2.33;;
4533;SDS011;2279;51.448;7.306;2023-04-03T14:49:44;1.67;;;1.57;;
4533;SDS011;2279;51.448;7.306;2023-04-03T14:52:16;2.00;;;1.80;;
4533;SDS011;2279;51.448;7.306;2023-04-03T14:54:43;3.10;;;2.10;;
4533;SDS011;2279;51.448;7.306;2023-04-03T14:57:09;2.30;;;2.10;;
4533;SDS011;2279;51.448;7.306;2023-04-03T14:59:37;5.07;;;1.80;;
4533;SDS011;2279;51.448;7.306;2023-04-03T15:02:08;4.23;;;2.23;;
4533;SDS011;2279;51.448;7.306;2023-04-03T15:04:36;1.87;;;1.63;;
4533;SDS011;2279;51.448;7.306;2023-04-03T15:07:03;3.00;;;2.10;;
4533;SDS011;2279;51.448;7.306;2023-04-03T15:09:28;2.37;;;2.17;;
4533;SDS011;2279;51.448;7.306;2023-04-03T15:11:55;5.60;;;1.80;;
4533;SDS011;2279;51.448;7.306;2023-04-03T15:14:21;2.70;;;2.33;;
4533;SDS011;2279;51.448;7.306;2023-04-03T15:16:48;6.33;;;2.80;;
4533;SDS011;2279;51.448;7.306;2023-04-03T15:19:14;4.30;;;2.83;;
4533;SDS011;2279;51.448;7.306;2023-04-03T15:21:40;2.20;;;2.10;;
4533;SDS011;2279;51.448;7.306;2023-04-03T15:24:06;4.90;;;2.27;;
4533;SDS011;2279;51.448;7.306;2023-04-03T15:26:32;2.30;;;2.10;;
4533;SDS011;2279;51.448;7.306;2023-04-03T15:28:58;5.80;;;2.50;;
4533;SDS011;2279;51.448;7.306;2023-04-03T15:31:24;3.90;;;2.57;;
4533;SDS011;2279;51.448;7.306;2023-04-03T15:33:50;6.60;;;2.70;;
4533;SDS011;2279;51.448;7.306;2023-04-03T15:36:16;7.40;;;2.10;;
4533;SDS011;2279;51.448;7.306;2023-04-03T15:38:42;3.03;;;2.33;;
4533;SDS011;2279;51.448;7.306;2023-04-03T15:41:08;4.10;;;2.60;;
4533;SDS011;2279;51.448;7.306;2023-04-03T15:43:34;3.50;;;2.80;;
4533;SDS011;2279;51.448;7.306;2023-04-03T15:46:00;2.87;;;2.30;;
4533;SDS011;2279;51.448;7.306;2023-04-03T15:48:27;2.97;;;2.10;;
4533;SDS011;2279;51.448;7.306;2023-04-03T15:50:53;3.13;;;2.53;;
4533;SDS011;2279;51.448;7.306;2023-04-03T15:53:19;3.87;;;2.23;;
4533;SDS011;2279;51.448;7.306;2023-04-03T15:55:45;3.43;;;2.80;;
4533;SDS011;2279;51.448;7.306;2023-04-03T15:58:11;4.27;;;3.30;;
4533;SDS011;2279;51.448;7.306;2023-04-03T16:00:37;3.43;;;2.53;;
4533;SDS011;2279;51.448;7.306;2023-04-03T16:03:10;3.60;;;2.77;;
4533;SDS011;2279;51.448;7.306;2023-04-03T16:05:37;4.10;;;2.37;;
4533;SDS011;2279;51.448;7.306;2023-04-03T16:08:04;4.00;;;2.70;;
4533;SDS011;2279;51.448;7.306;2023-04-03T16:10:31;4.30;;;2.60;;
4533;SDS011;2279;51.448;7.306;2023-04-03T16:12:57;4.47;;;3.07;;
4533;SDS011;2279;51.448;7.306;2023-04-03T16:15:23;5.10;;;2.43;;
4533;SDS011;2279;51.448;7.306;2023-04-03T16:17:50;4.57;;;2.60;;
4533;SDS011;2279;51.448;7.306;2023-04-03T16:20:16;4.10;;;2.63;;
4533;SDS011;2279;51.448;7.306;2023-04-03T16:22:43;4.10;;;2.43;;
4533;SDS011;2279;51.448;7.306;2023-04-03T16:25:10;9.23;;;2.60;;
4533;SDS011;2279;51.448;7.306;2023-04-03T16:27:36;3.50;;;3.10;;
4533;SDS011;2279;51.448;7.306;2023-04-03T16:30:03;2.43;;;2.23;;
4533;SDS011;2279;51.448;7.306;2023-04-03T16:32:30;4.73;;;2.83;;
4533;SDS011;2279;51.448;7.306;2023-04-03T16:34:57;2.67;;;2.43;;
4533;SDS011;2279;51.448;7.306;2023-04-03T16:37:24;3.43;;;2.70;;
4533;SDS011;2279;51.448;7.306;2023-04-03T16:39:50;5.60;;;2.23;;
4533;SDS011;2279;51.448;7.306;2023-04-03T16:42:16;2.67;;;2.47;;
4533;SDS011;2279;51.448;7.306;2023-04-03T16:44:42;4.93;;;2.80;;
4533;SDS011;2279;51.448;7.306;2023-04-03T16:47:08;4.87;;;2.60;;
4533;SDS011;2279;51.448;7.306;2023-04-03T16:49:36;4.30;;;2.90;;
4533;SDS011;2279;51.448;7.306;2023-04-03T16:52:03;2.93;;;2.63;;
4533;SDS011;2279;51.448;7.306;2023-04-03T16:54:30;4.43;;;3.00;;
4533;SDS011;2279;51.448;7.306;2023-04-03T16:56:57;4.57;;;3.23;;
4533;SDS011;2279;51.448;7.306;2023-04-03T16:59:24;4.53;;;2.50;;
4533;SDS011;2279;51.448;7.306;2023-04-03T17:01:50;5.50;;;2.57;;
4533;SDS011;2279;51.448;7.306;2023-04-03T17:04:16;4.27;;;2.30;;
4533;SDS011;2279;51.448;7.306;2023-04-03T17:06:42;4.60;;;3.50;;